sensor_id;sensor_type;location;lat;lon;timestamp;P1;durP1;ratioP1;P2;durP2;ratioP2
75450;SDS011;64029;48.244;9.188;2023-04-01T00:01:28;2.73;;;2.13;;
75450;SDS011;64029;48.244;9.188;2023-04-01T00:03:55;3.60;;;2.00;;
75450;SDS011;64029;48.244;9.188;2023-04-01T00:06:22;2.77;;;1.40;;
75450;SDS011;64029;48.244;9.188;2023-04-01T00:08:49;1.30;;;0.87;;
75450;SDS011;64029;48.244;9.188;2023-04-01T00:11:17;1.97;;;0.70;;
75450;SDS011;64029;48.244;9.188;2023-04-01T00:13:44;2.77;;;1.50;;
75450;SDS011;64029;48.244;9.188;2023-04-01T00:16:11;1.83;;;1.00;;
75450;SDS011;64029;48.244;9.188;2023-04-01T00:18:40;2.50;;;1.17;;
75450;SDS011;64029;48.244;9.188;2023-04-01T00:21:07;2.93;;;0.80;;
75450;SDS011;64029;48.244;9.188;2023-04-01T00:23:34;6.43;;;0.70;;
75450;SDS011;64029;48.244;9.188;2023-04-01T00:26:02;1.57;;;0.87;;
75450;SDS011;64029;48.244;9.188;2023-04-01T00:28:30;1.10;;;1.00;;
75450;SDS011;64029;48.244;9.188;2023-04-01T00:30:57;1.50;;;0.70;;
75450;SDS011;64029;48.244;9.188;2023-04-01T00:33:24;5.20;;;1.10;;
75450;SDS011;64029;48.244;9.188;2023-04-01T00:35:53;2.90;;;0.70;;
75450;SDS011;64029;48.244;9.188;2023-04-01T00:38:21;1.70;;;0.70;;
75450;SDS011;64029;48.244;9.188;2023-04-01T00:40:48;2.53;;;0.70;;
75450;SDS011;64029;48.244;9.188;2023-04-01T00:43:15;2.67;;;0.73;;
75450;SDS011;64029;48.244;9.188;2023-04-01T00:45:45;1.50;;;1.00;;
75450;SDS011;64029;48.244;9.188;2023-04-01T00:48:14;1.00;;;0.80;;
75450;SDS011;64029;48.244;9.188;2023-04-01T00:50:44;1.63;;;0.80;;
75450;SDS011;64029;48.244;9.188;2023-04-01T00:53:16;2.40;;;0.87;;
75450;SDS011;64029;48.244;9.188;2023-04-01T00:55:45;1.30;;;0.90;;
75450;SDS011;64029;48.244;9.188;2023-04-01T00:58:17;1.00;;;0.80;;
75450;SDS011;64029;48.244;9.188;2023-04-01T01:00:47;1.87;;;0.77;;
75450;SDS011;64029;48.244;9.188;2023-04-01T01:03:16;1.30;;;0.80;;
75450;SDS011;64029;48.244;9.188;2023-04-01T01:05:52;1.47;;;0.70;;
75450;SDS011;64029;48.244;9.188;2023-04-01T01:08:50;1.30;;;0.80;;
75450;SDS011;64029;48.244;9.188;2023-04-01T01:11:33;0.70;;;0.60;;
75450;SDS011;64029;48.244;9.188;2023-04-01T01:14:06;2.43;;;0.70;;
75450;SDS011;64029;48.244;9.188;2023-04-01T01:16:40;2.50;;;0.60;;
75450;SDS011;64029;48.244;9.188;2023-04-01T01:19:12;5.13;;;0.90;;
75450;SDS011;64029;48.244;9.188;2023-04-01T01:21:59;1.10;;;0.70;;
75450;SDS011;64029;48.244;9.188;2023-04-01T01:24:41;1.10;;;0.60;;
75450;SDS011;64029;48.244;9.188;2023-04-01T01:27:16;1.43;;;0.60;;
75450;SDS011;64029;48.244;9.188;2023-04-01T01:29:47;2.77;;;0.70;;
75450;SDS011;64029;48.244;9.188;2023-04-01T01:32:38;0.70;;;0.50;;
75450;SDS011;64029;48.244;9.188;2023-04-01T01:35:29;0.70;;;0.50;;
75450;SDS011;64029;48.244;9.188;2023-04-01T01:38:01;1.83;;;0.60;;
75450;SDS011;64029;48.244;9.188;2023-04-01T01:40:31;0.93;;;0.60;;
75450;SDS011;64029;48.244;9.188;2023-04-01T01:43:00;1.10;;;0.50;;
75450;SDS011;64029;48.244;9.188;2023-04-01T01:45:31;0.70;;;0.57;;
75450;SDS011;64029;48.244;9.188;2023-04-01T01:48:01;0.70;;;0.50;;
75450;SDS011;64029;48.244;9.188;2023-04-01T01:50:32;2.70;;;0.60;;
75450;SDS011;64029;48.244;9.188;2023-04-01T01:53:01;1.40;;;0.60;;
75450;SDS011;64029;48.244;9.188;2023-04-01T01:55:30;1.40;;;0.60;;
75450;SDS011;64029;48.244;9.188;2023-04-01T01:57:59;1.20;;;0.57;;
75450;SDS011;64029;48.244;9.188;2023-04-01T02:00:30;0.70;;;0.50;;
75450;SDS011;64029;48.244;9.188;2023-04-01T02:02:59;2.40;;;0.50;;
75450;SDS011;64029;48.244;9.188;2023-04-01T02:05:27;1.27;;;0.60;;
75450;SDS011;64029;48.244;9.188;2023-04-01T02:08:00;0.80;;;0.50;;
75450;SDS011;64029;48.244;9.188;2023-04-01T02:10:30;1.00;;;0.50;;
75450;SDS011;64029;48.244;9.188;2023-04-01T02:13:01;1.70;;;0.70;;
75450;SDS011;64029;48.244;9.188;2023-04-01T02:15:32;0.87;;;0.67;;
75450;SDS011;64029;48.244;9.188;2023-04-01T02:18:06;0.90;;;0.60;;
75450;SDS011;64029;48.244;9.188;2023-04-01T02:20:34;0.77;;;0.60;;
75450;SDS011;64029;48.244;9.188;2023-04-01T02:23:05;0.70;;;0.60;;
75450;SDS011;64029;48.244;9.188;2023-04-01T02:25:34;0.80;;;0.60;;
75450;SDS011;64029;48.244;9.188;2023-04-01T02:28:04;0.90;;;0.60;;
75450;SDS011;64029;48.244;9.188;2023-04-01T02:30:33;0.80;;;0.60;;
75450;SDS011;64029;48.244;9.188;2023-04-01T02:33:02;0.70;;;0.57;;
75450;SDS011;64029;48.244;9.188;2023-04-01T02:35:31;0.90;;;0.60;;
75450;SDS011;64029;48.244;9.188;2023-04-01T02:37:59;0.90;;;0.50;;
75450;SDS011;64029;48.244;9.188;2023-04-01T02:40:28;0.70;;;0.60;;
75450;SDS011;64029;48.244;9.188;2023-04-01T02:42:55;0.60;;;0.50;;
75450;SDS011;64029;48.244;9.188;2023-04-01T02:45:22;0.70;;;0.50;;
75450;SDS011;64029;48.244;9.188;2023-04-01T02:47:49;0.80;;;0.70;;
75450;SDS011;64029;48.244;9.188;2023-04-01T02:50:16;0.90;;;0.50;;
75450;SDS011;64029;48.244;9.188;2023-04-01T02:52:43;0.77;;;0.50;;
75450;SDS011;64029;48.244;9.188;2023-04-01T02:55:10;0.60;;;0.50;;
75450;SDS011;64029;48.244;9.188;2023-04-01T02:57:38;0.60;;;0.50;;
75450;SDS011;64029;48.244;9.188;2023-04-01T03:00:05;0.77;;;0.57;;
75450;SDS011;64029;48.244;9.188;2023-04-01T03:02:36;1.20;;;0.60;;
75450;SDS011;64029;48.244;9.188;2023-04-01T03:05:04;0.63;;;0.50;;
75450;SDS011;64029;48.244;9.188;2023-04-01T03:07:32;0.90;;;0.50;;
75450;SDS011;64029;48.244;9.188;2023-04-01T03:09:59;1.63;;;0.53;;
75450;SDS011;64029;48.244;9.188;2023-04-01T03:12:25;1.43;;;0.50;;
75450;SDS011;64029;48.244;9.188;2023-04-01T03:14:54;0.70;;;0.50;;
75450;SDS011;64029;48.244;9.188;2023-04-01T03:17:21;0.60;;;0.40;;
75450;SDS011;64029;48.244;9.188;2023-04-01T03:19:48;0.70;;;0.50;;
75450;SDS011;64029;48.244;9.188;2023-04-01T03:22:15;0.63;;;0.50;;
75450;SDS011;64029;48.244;9.188;2023-04-01T03:24:41;0.60;;;0.50;;
75450;SDS011;64029;48.244;9.188;2023-04-01T03:27:08;0.70;;;0.60;;
75450;SDS011;64029;48.244;9.188;2023-04-01T03:29:35;0.70;;;0.50;;
75450;SDS011;64029;48.244;9.188;2023-04-01T03:32:03;1.43;;;0.50;;
75450;SDS011;64029;48.244;9.188;2023-04-01T03:34:31;0.63;;;0.50;;
75450;SDS011;64029;48.244;9.188;2023-04-01T03:36:58;0.70;;;0.50;;
75450;SDS011;64029;48.244;9.188;2023-04-01T03:39:25;0.60;;;0.60;;
75450;SDS011;64029;48.244;9.188;2023-04-01T03:41:51;0.80;;;0.60;;
75450;SDS011;64029;48.244;9.188;2023-04-01T03:44:18;0.70;;;0.50;;
75450;SDS011;64029;48.244;9.188;2023-04-01T03:46:45;1.70;;;0.70;;
75450;SDS011;64029;48.244;9.188;2023-04-01T03:49:13;3.00;;;0.80;;
75450;SDS011;64029;48.244;9.188;2023-04-01T03:51:41;3.73;;;0.60;;
75450;SDS011;64029;48.244;9.188;2023-04-01T03:54:08;0.80;;;0.60;;
75450;SDS011;64029;48.244;9.188;2023-04-01T03:56:36;2.30;;;0.60;;
75450;SDS011;64029;48.244;9.188;2023-04-01T03:59:03;1.40;;;0.80;;
75450;SDS011;64029;48.244;9.188;2023-04-01T04:01:31;1.47;;;0.60;;
75450;SDS011;64029;48.244;9.188;2023-04-01T04:03:58;2.73;;;0.50;;
75450;SDS011;64029;48.244;9.188;2023-04-01T04:06:27;0.97;;;0.50;;
75450;SDS011;64029;48.244;9.188;2023-04-01T04:08:54;0.87;;;0.60;;
75450;SDS011;64029;48.244;9.188;2023-04-01T04:11:21;1.63;;;0.60;;
75450;SDS011;64029;48.244;9.188;2023-04-01T04:13:48;1.00;;;0.60;;
75450;SDS011;64029;48.244;9.188;2023-04-01T04:16:17;1.20;;;0.60;;
75450;SDS011;64029;48.244;9.188;2023-04-01T04:18:44;0.70;;;0.60;;
75450;SDS011;64029;48.244;9.188;2023-04-01T04:21:11;0.70;;;0.60;;
75450;SDS011;64029;48.244;9.188;2023-04-01T04:23:40;1.63;;;0.70;;
75450;SDS011;64029;48.244;9.188;2023-04-01T04:26:08;2.90;;;0.80;;
75450;SDS011;64029;48.244;9.188;2023-04-01T04:28:37;1.40;;;0.63;;
75450;SDS011;64029;48.244;9.188;2023-04-01T04:31:04;1.23;;;0.73;;
75450;SDS011;64029;48.244;9.188;2023-04-01T04:33:31;3.67;;;0.60;;
75450;SDS011;64029;48.244;9.188;2023-04-01T04:36:00;2.17;;;0.70;;
75450;SDS011;64029;48.244;9.188;2023-04-01T04:38:27;1.57;;;0.70;;
75450;SDS011;64029;48.244;9.188;2023-04-01T04:40:56;1.47;;;0.70;;
75450;SDS011;64029;48.244;9.188;2023-04-01T04:43:23;2.40;;;0.60;;
75450;SDS011;64029;48.244;9.188;2023-04-01T04:45:50;0.80;;;0.50;;
75450;SDS011;64029;48.244;9.188;2023-04-01T04:48:17;1.10;;;0.70;;
75450;SDS011;64029;48.244;9.188;2023-04-01T04:50:45;0.80;;;0.50;;
75450;SDS011;64029;48.244;9.188;2023-04-01T04:53:14;0.97;;;0.50;;
75450;SDS011;64029;48.244;9.188;2023-04-01T04:55:44;0.60;;;0.50;;
75450;SDS011;64029;48.244;9.188;2023-04-01T04:58:13;0.97;;;0.50;;
75450;SDS011;64029;48.244;9.188;2023-04-01T05:00:40;2.73;;;0.70;;
75450;SDS011;64029;48.244;9.188;2023-04-01T05:03:08;0.60;;;0.50;;
75450;SDS011;64029;48.244;9.188;2023-04-01T05:05:35;1.10;;;0.60;;
75450;SDS011;64029;48.244;9.188;2023-04-01T05:08:02;0.80;;;0.60;;
75450;SDS011;64029;48.244;9.188;2023-04-01T05:10:30;0.70;;;0.60;;
75450;SDS011;64029;48.244;9.188;2023-04-01T05:12:57;0.70;;;0.50;;
75450;SDS011;64029;48.244;9.188;2023-04-01T05:15:25;2.10;;;0.50;;
75450;SDS011;64029;48.244;9.188;2023-04-01T05:17:52;1.03;;;0.60;;
75450;SDS011;64029;48.244;9.188;2023-04-01T05:20:19;2.50;;;0.50;;
75450;SDS011;64029;48.244;9.188;2023-04-01T05:22:46;1.03;;;0.60;;
75450;SDS011;64029;48.244;9.188;2023-04-01T05:25:13;0.70;;;0.50;;
75450;SDS011;64029;48.244;9.188;2023-04-01T05:27:40;0.70;;;0.50;;
75450;SDS011;64029;48.244;9.188;2023-04-01T05:30:07;1.00;;;0.70;;
75450;SDS011;64029;48.244;9.188;2023-04-01T05:32:36;1.20;;;0.50;;
75450;SDS011;64029;48.244;9.188;2023-04-01T05:35:03;0.70;;;0.60;;
75450;SDS011;64029;48.244;9.188;2023-04-01T05:37:30;0.70;;;0.50;;
75450;SDS011;64029;48.244;9.188;2023-04-01T05:39:59;0.93;;;0.60;;
75450;SDS011;64029;48.244;9.188;2023-04-01T05:42:25;2.60;;;0.70;;
75450;SDS011;64029;48.244;9.188;2023-04-01T05:44:52;1.10;;;0.70;;
75450;SDS011;64029;48.244;9.188;2023-04-01T05:47:20;0.80;;;0.60;;
75450;SDS011;64029;48.244;9.188;2023-04-01T05:49:49;0.93;;;0.60;;
75450;SDS011;64029;48.244;9.188;2023-04-01T05:52:16;0.80;;;0.70;;
75450;SDS011;64029;48.244;9.188;2023-04-01T05:54:43;1.27;;;0.70;;
75450;SDS011;64029;48.244;9.188;2023-04-01T05:57:09;1.87;;;0.63;;
75450;SDS011;64029;48.244;9.188;2023-04-01T05:59:36;0.90;;;0.80;;
75450;SDS011;64029;48.244;9.188;2023-04-01T06:02:03;0.80;;;0.80;;
75450;SDS011;64029;48.244;9.188;2023-04-01T06:04:32;0.80;;;0.60;;
75450;SDS011;64029;48.244;9.188;2023-04-01T06:07:08;1.60;;;0.73;;
75450;SDS011;64029;48.244;9.188;2023-04-01T06:09:38;1.47;;;0.70;;
75450;SDS011;64029;48.244;9.188;2023-04-01T06:12:13;1.40;;;0.90;;
75450;SDS011;64029;48.244;9.188;2023-04-01T06:14:58;1.60;;;0.80;;
75450;SDS011;64029;48.244;9.188;2023-04-01T06:17:36;2.43;;;0.70;;
75450;SDS011;64029;48.244;9.188;2023-04-01T06:20:16;1.10;;;0.77;;
75450;SDS011;64029;48.244;9.188;2023-04-01T06:25:51;0.90;;;0.70;;
75450;SDS011;64029;48.244;9.188;2023-04-01T06:31:33;1.93;;;0.90;;
75450;SDS011;64029;48.244;9.188;2023-04-01T06:34:15;1.20;;;0.80;;
75450;SDS011;64029;48.244;9.188;2023-04-01T06:37:04;1.77;;;0.87;;
75450;SDS011;64029;48.244;9.188;2023-04-01T06:42:41;1.33;;;0.77;;
75450;SDS011;64029;48.244;9.188;2023-04-01T06:45:25;1.40;;;0.80;;
75450;SDS011;64029;48.244;9.188;2023-04-01T06:48:02;1.53;;;0.80;;
75450;SDS011;64029;48.244;9.188;2023-04-01T06:50:41;2.70;;;0.90;;
75450;SDS011;64029;48.244;9.188;2023-04-01T06:53:16;1.57;;;0.80;;
75450;SDS011;64029;48.244;9.188;2023-04-01T06:55:50;1.93;;;0.70;;
75450;SDS011;64029;48.244;9.188;2023-04-01T06:58:22;1.70;;;0.70;;
75450;SDS011;64029;48.244;9.188;2023-04-01T07:00:51;0.70;;;0.70;;
75450;SDS011;64029;48.244;9.188;2023-04-01T07:03:23;1.00;;;0.70;;
75450;SDS011;64029;48.244;9.188;2023-04-01T07:05:58;2.13;;;1.30;;
75450;SDS011;64029;48.244;9.188;2023-04-01T07:08:29;1.77;;;0.70;;
75450;SDS011;64029;48.244;9.188;2023-04-01T07:11:00;3.63;;;1.00;;
75450;SDS011;64029;48.244;9.188;2023-04-01T07:13:30;2.40;;;0.80;;
75450;SDS011;64029;48.244;9.188;2023-04-01T07:16:07;0.87;;;0.87;;
75450;SDS011;64029;48.244;9.188;2023-04-01T07:18:41;0.90;;;0.73;;
75450;SDS011;64029;48.244;9.188;2023-04-01T07:21:16;0.80;;;0.73;;
75450;SDS011;64029;48.244;9.188;2023-04-01T07:23:52;1.20;;;0.70;;
75450;SDS011;64029;48.244;9.188;2023-04-01T07:26:26;1.10;;;0.90;;
75450;SDS011;64029;48.244;9.188;2023-04-01T07:28:53;0.90;;;0.80;;
75450;SDS011;64029;48.244;9.188;2023-04-01T07:31:25;2.20;;;0.70;;
75450;SDS011;64029;48.244;9.188;2023-04-01T07:34:05;1.13;;;0.80;;
75450;SDS011;64029;48.244;9.188;2023-04-01T07:36:39;0.87;;;0.67;;
75450;SDS011;64029;48.244;9.188;2023-04-01T07:39:18;2.07;;;1.00;;
75450;SDS011;64029;48.244;9.188;2023-04-01T07:41:54;1.00;;;0.80;;
75450;SDS011;64029;48.244;9.188;2023-04-01T07:44:32;1.30;;;0.70;;
75450;SDS011;64029;48.244;9.188;2023-04-01T07:47:11;0.90;;;0.70;;
75450;SDS011;64029;48.244;9.188;2023-04-01T07:49:49;1.00;;;0.60;;
75450;SDS011;64029;48.244;9.188;2023-04-01T07:52:29;2.03;;;0.70;;
75450;SDS011;64029;48.244;9.188;2023-04-01T07:55:02;0.93;;;0.80;;
75450;SDS011;64029;48.244;9.188;2023-04-01T07:57:37;0.70;;;0.60;;
75450;SDS011;64029;48.244;9.188;2023-04-01T08:00:10;0.70;;;0.70;;
75450;SDS011;64029;48.244;9.188;2023-04-01T08:02:45;1.23;;;0.80;;
75450;SDS011;64029;48.244;9.188;2023-04-01T08:05:23;1.50;;;0.60;;
75450;SDS011;64029;48.244;9.188;2023-04-01T08:07:57;0.70;;;0.60;;
75450;SDS011;64029;48.244;9.188;2023-04-01T08:10:30;1.23;;;0.90;;
75450;SDS011;64029;48.244;9.188;2023-04-01T08:13:06;0.90;;;0.70;;
75450;SDS011;64029;48.244;9.188;2023-04-01T08:15:43;1.27;;;0.70;;
75450;SDS011;64029;48.244;9.188;2023-04-01T08:18:21;0.80;;;0.60;;
75450;SDS011;64029;48.244;9.188;2023-04-01T08:20:58;2.00;;;0.70;;
75450;SDS011;64029;48.244;9.188;2023-04-01T08:23:27;1.00;;;0.90;;
75450;SDS011;64029;48.244;9.188;2023-04-01T08:25:58;0.80;;;0.70;;
75450;SDS011;64029;48.244;9.188;2023-04-01T08:28:32;1.30;;;0.70;;
75450;SDS011;64029;48.244;9.188;2023-04-01T08:31:04;0.80;;;0.60;;
75450;SDS011;64029;48.244;9.188;2023-04-01T08:33:38;1.13;;;0.60;;
75450;SDS011;64029;48.244;9.188;2023-04-01T08:36:08;0.90;;;0.60;;
75450;SDS011;64029;48.244;9.188;2023-04-01T08:38:40;0.60;;;0.50;;
75450;SDS011;64029;48.244;9.188;2023-04-01T08:44:21;1.03;;;0.60;;
75450;SDS011;64029;48.244;9.188;2023-04-01T08:50:26;1.77;;;0.70;;
75450;SDS011;64029;48.244;9.188;2023-04-01T08:53:05;1.00;;;0.60;;
75450;SDS011;64029;48.244;9.188;2023-04-01T08:55:40;0.70;;;0.60;;
75450;SDS011;64029;48.244;9.188;2023-04-01T08:58:23;1.10;;;0.63;;
75450;SDS011;64029;48.244;9.188;2023-04-01T09:01:17;0.80;;;0.70;;
75450;SDS011;64029;48.244;9.188;2023-04-01T09:03:57;1.00;;;0.63;;
75450;SDS011;64029;48.244;9.188;2023-04-01T09:06:40;0.80;;;0.60;;
75450;SDS011;64029;48.244;9.188;2023-04-01T09:12:35;0.80;;;0.60;;
75450;SDS011;64029;48.244;9.188;2023-04-01T09:15:20;0.70;;;0.60;;
75450;SDS011;64029;48.244;9.188;2023-04-01T09:21:16;0.70;;;0.60;;
75450;SDS011;64029;48.244;9.188;2023-04-01T09:24:00;0.90;;;0.60;;
75450;SDS011;64029;48.244;9.188;2023-04-01T09:26:53;0.70;;;0.60;;
75450;SDS011;64029;48.244;9.188;2023-04-01T09:29:38;0.60;;;0.60;;
75450;SDS011;64029;48.244;9.188;2023-04-01T09:32:31;2.40;;;0.70;;
75450;SDS011;64029;48.244;9.188;2023-04-01T09:35:24;0.80;;;0.60;;
75450;SDS011;64029;48.244;9.188;2023-04-01T09:38:00;0.87;;;0.60;;
75450;SDS011;64029;48.244;9.188;2023-04-01T09:40:46;1.60;;;0.70;;
75450;SDS011;64029;48.244;9.188;2023-04-01T09:43:27;0.70;;;0.60;;
75450;SDS011;64029;48.244;9.188;2023-04-01T09:46:11;0.60;;;0.60;;
75450;SDS011;64029;48.244;9.188;2023-04-01T09:48:55;1.30;;;0.90;;
75450;SDS011;64029;48.244;9.188;2023-04-01T09:51:43;0.90;;;0.90;;
75450;SDS011;64029;48.244;9.188;2023-04-01T09:54:24;2.20;;;1.17;;
75450;SDS011;64029;48.244;9.188;2023-04-01T09:57:22;0.97;;;0.90;;
75450;SDS011;64029;48.244;9.188;2023-04-01T10:00:39;0.90;;;0.80;;
75450;SDS011;64029;48.244;9.188;2023-04-01T10:09:31;2.60;;;0.63;;
75450;SDS011;64029;48.244;9.188;2023-04-01T10:12:32;1.13;;;1.03;;
75450;SDS011;64029;48.244;9.188;2023-04-01T10:18:19;1.10;;;0.70;;
75450;SDS011;64029;48.244;9.188;2023-04-01T10:21:10;0.97;;;0.80;;
75450;SDS011;64029;48.244;9.188;2023-04-01T10:24:05;0.80;;;0.80;;
75450;SDS011;64029;48.244;9.188;2023-04-01T10:26:52;0.80;;;0.70;;
75450;SDS011;64029;48.244;9.188;2023-04-01T10:29:58;0.97;;;0.60;;
75450;SDS011;64029;48.244;9.188;2023-04-01T10:33:19;0.80;;;0.70;;
75450;SDS011;64029;48.244;9.188;2023-04-01T10:39:22;0.73;;;0.70;;
75450;SDS011;64029;48.244;9.188;2023-04-01T10:42:18;0.60;;;0.50;;
75450;SDS011;64029;48.244;9.188;2023-04-01T10:45:19;0.70;;;0.60;;
75450;SDS011;64029;48.244;9.188;2023-04-01T10:48:18;0.80;;;0.60;;
75450;SDS011;64029;48.244;9.188;2023-04-01T10:50:53;0.80;;;0.70;;
75450;SDS011;64029;48.244;9.188;2023-04-01T10:53:37;0.70;;;0.60;;
75450;SDS011;64029;48.244;9.188;2023-04-01T11:02:12;0.70;;;0.60;;
75450;SDS011;64029;48.244;9.188;2023-04-01T11:14:50;0.80;;;0.60;;
75450;SDS011;64029;48.244;9.188;2023-04-01T11:21:09;1.67;;;1.00;;
75450;SDS011;64029;48.244;9.188;2023-04-01T11:26:59;4.83;;;0.87;;
75450;SDS011;64029;48.244;9.188;2023-04-01T11:35:33;0.80;;;0.70;;
75450;SDS011;64029;48.244;9.188;2023-04-01T11:38:18;0.60;;;0.50;;
75450;SDS011;64029;48.244;9.188;2023-04-01T11:40:55;0.80;;;0.70;;
75450;SDS011;64029;48.244;9.188;2023-04-01T11:43:29;1.17;;;0.60;;
75450;SDS011;64029;48.244;9.188;2023-04-01T11:46:02;2.03;;;1.30;;
75450;SDS011;64029;48.244;9.188;2023-04-01T11:48:38;0.87;;;0.80;;
75450;SDS011;64029;48.244;9.188;2023-04-01T11:51:42;1.20;;;0.77;;
75450;SDS011;64029;48.244;9.188;2023-04-01T11:54:21;1.27;;;0.90;;
75450;SDS011;64029;48.244;9.188;2023-04-01T11:57:09;2.97;;;1.00;;
75450;SDS011;64029;48.244;9.188;2023-04-01T11:59:59;3.10;;;1.80;;
75450;SDS011;64029;48.244;9.188;2023-04-01T12:02:55;6.33;;;2.33;;
75450;SDS011;64029;48.244;9.188;2023-04-01T12:05:38;7.33;;;3.23;;
75450;SDS011;64029;48.244;9.188;2023-04-01T12:08:12;7.43;;;2.27;;
75450;SDS011;64029;48.244;9.188;2023-04-01T12:10:50;3.30;;;1.60;;
75450;SDS011;64029;48.244;9.188;2023-04-01T12:13:27;2.90;;;1.07;;
75450;SDS011;64029;48.244;9.188;2023-04-01T12:16:08;2.57;;;1.40;;
75450;SDS011;64029;48.244;9.188;2023-04-01T12:18:50;8.70;;;1.53;;
75450;SDS011;64029;48.244;9.188;2023-04-01T12:21:23;5.07;;;1.30;;
75450;SDS011;64029;48.244;9.188;2023-04-01T12:24:09;2.03;;;1.00;;
75450;SDS011;64029;48.244;9.188;2023-04-01T12:27:13;2.90;;;1.00;;
75450;SDS011;64029;48.244;9.188;2023-04-01T12:29:54;1.10;;;1.00;;
75450;SDS011;64029;48.244;9.188;2023-04-01T12:32:50;1.33;;;1.23;;
75450;SDS011;64029;48.244;9.188;2023-04-01T12:35:29;1.30;;;0.80;;
75450;SDS011;64029;48.244;9.188;2023-04-01T12:38:03;1.10;;;1.00;;
75450;SDS011;64029;48.244;9.188;2023-04-01T12:40:43;0.90;;;0.70;;
75450;SDS011;64029;48.244;9.188;2023-04-01T12:43:27;0.80;;;0.80;;
75450;SDS011;64029;48.244;9.188;2023-04-01T12:46:15;0.93;;;0.80;;
75450;SDS011;64029;48.244;9.188;2023-04-01T12:51:50;5.23;;;1.00;;
75450;SDS011;64029;48.244;9.188;2023-04-01T12:54:57;1.10;;;0.80;;
75450;SDS011;64029;48.244;9.188;2023-04-01T12:57:59;0.80;;;0.70;;
75450;SDS011;64029;48.244;9.188;2023-04-01T13:00:49;0.90;;;0.70;;
75450;SDS011;64029;48.244;9.188;2023-04-01T13:03:34;0.80;;;0.70;;
75450;SDS011;64029;48.244;9.188;2023-04-01T13:06:24;0.80;;;0.70;;
75450;SDS011;64029;48.244;9.188;2023-04-01T13:08:57;0.83;;;0.83;;
75450;SDS011;64029;48.244;9.188;2023-04-01T13:11:34;0.80;;;0.67;;
75450;SDS011;64029;48.244;9.188;2023-04-01T13:17:14;0.70;;;0.60;;
75450;SDS011;64029;48.244;9.188;2023-04-01T13:19:49;1.23;;;0.90;;
75450;SDS011;64029;48.244;9.188;2023-04-01T13:22:21;1.13;;;0.60;;
75450;SDS011;64029;48.244;9.188;2023-04-01T13:24:53;0.67;;;0.60;;
75450;SDS011;64029;48.244;9.188;2023-04-01T13:27:28;0.70;;;0.60;;
75450;SDS011;64029;48.244;9.188;2023-04-01T13:30:02;1.97;;;0.60;;
75450;SDS011;64029;48.244;9.188;2023-04-01T13:32:46;0.80;;;0.73;;
75450;SDS011;64029;48.244;9.188;2023-04-01T13:35:19;0.70;;;0.63;;
75450;SDS011;64029;48.244;9.188;2023-04-01T13:38:00;1.90;;;0.70;;
75450;SDS011;64029;48.244;9.188;2023-04-01T13:40:41;1.10;;;0.70;;
75450;SDS011;64029;48.244;9.188;2023-04-01T13:43:16;0.73;;;0.60;;
75450;SDS011;64029;48.244;9.188;2023-04-01T13:45:55;0.90;;;0.80;;
75450;SDS011;64029;48.244;9.188;2023-04-01T13:48:36;4.40;;;0.70;;
75450;SDS011;64029;48.244;9.188;2023-04-01T13:51:18;0.70;;;0.60;;
75450;SDS011;64029;48.244;9.188;2023-04-01T13:57:16;0.70;;;0.60;;
75450;SDS011;64029;48.244;9.188;2023-04-01T14:02:56;1.43;;;0.60;;
75450;SDS011;64029;48.244;9.188;2023-04-01T14:08:42;1.20;;;0.90;;
75450;SDS011;64029;48.244;9.188;2023-04-01T14:11:23;1.00;;;0.90;;
75450;SDS011;64029;48.244;9.188;2023-04-01T14:13:59;1.00;;;0.73;;
75450;SDS011;64029;48.244;9.188;2023-04-01T14:19:39;2.30;;;0.73;;
75450;SDS011;64029;48.244;9.188;2023-04-01T14:22:33;2.40;;;0.80;;
75450;SDS011;64029;48.244;9.188;2023-04-01T14:25:16;0.80;;;0.70;;
75450;SDS011;64029;48.244;9.188;2023-04-01T14:28:00;0.80;;;0.60;;
75450;SDS011;64029;48.244;9.188;2023-04-01T14:30:45;0.83;;;0.70;;
75450;SDS011;64029;48.244;9.188;2023-04-01T14:33:35;1.20;;;1.00;;
75450;SDS011;64029;48.244;9.188;2023-04-01T14:36:14;1.13;;;1.00;;
75450;SDS011;64029;48.244;9.188;2023-04-01T14:38:56;1.70;;;1.00;;
75450;SDS011;64029;48.244;9.188;2023-04-01T14:41:38;1.00;;;0.90;;
75450;SDS011;64029;48.244;9.188;2023-04-01T14:44:26;2.17;;;0.90;;
75450;SDS011;64029;48.244;9.188;2023-04-01T14:47:13;1.00;;;0.90;;
75450;SDS011;64029;48.244;9.188;2023-04-01T14:50:02;1.40;;;0.90;;
75450;SDS011;64029;48.244;9.188;2023-04-01T14:52:33;3.07;;;1.37;;
75450;SDS011;64029;48.244;9.188;2023-04-01T14:55:10;2.23;;;0.90;;
75450;SDS011;64029;48.244;9.188;2023-04-01T14:57:57;1.90;;;1.80;;
75450;SDS011;64029;48.244;9.188;2023-04-01T15:00:26;1.70;;;1.60;;
75450;SDS011;64029;48.244;9.188;2023-04-01T15:02:56;2.80;;;2.60;;
75450;SDS011;64029;48.244;9.188;2023-04-01T15:05:32;2.60;;;2.40;;
75450;SDS011;64029;48.244;9.188;2023-04-01T15:08:14;3.57;;;2.60;;
75450;SDS011;64029;48.244;9.188;2023-04-01T15:10:56;3.10;;;2.00;;
75450;SDS011;64029;48.244;9.188;2023-04-01T15:16:45;2.40;;;1.27;;
75450;SDS011;64029;48.244;9.188;2023-04-01T15:19:27;1.10;;;0.83;;
75450;SDS011;64029;48.244;9.188;2023-04-01T15:25:04;1.20;;;1.10;;
75450;SDS011;64029;48.244;9.188;2023-04-01T15:27:44;1.30;;;1.03;;
75450;SDS011;64029;48.244;9.188;2023-04-01T15:30:25;1.20;;;1.10;;
75450;SDS011;64029;48.244;9.188;2023-04-01T15:33:00;2.00;;;1.23;;
75450;SDS011;64029;48.244;9.188;2023-04-01T15:35:50;1.33;;;1.13;;
75450;SDS011;64029;48.244;9.188;2023-04-01T15:38:26;1.33;;;1.20;;
75450;SDS011;64029;48.244;9.188;2023-04-01T15:41:02;1.30;;;1.10;;
75450;SDS011;64029;48.244;9.188;2023-04-01T15:43:40;1.00;;;0.90;;
75450;SDS011;64029;48.244;9.188;2023-04-01T15:46:09;1.50;;;1.00;;
75450;SDS011;64029;48.244;9.188;2023-04-01T15:48:52;1.00;;;0.90;;
75450;SDS011;64029;48.244;9.188;2023-04-01T15:51:35;1.63;;;1.00;;
75450;SDS011;64029;48.244;9.188;2023-04-01T15:54:27;1.10;;;0.90;;
75450;SDS011;64029;48.244;9.188;2023-04-01T15:57:15;2.50;;;1.60;;
75450;SDS011;64029;48.244;9.188;2023-04-01T16:00:00;1.87;;;1.27;;
75450;SDS011;64029;48.244;9.188;2023-04-01T16:02:38;2.27;;;2.00;;
75450;SDS011;64029;48.244;9.188;2023-04-01T16:05:16;2.17;;;1.80;;
75450;SDS011;64029;48.244;9.188;2023-04-01T16:07:57;2.90;;;1.97;;
75450;SDS011;64029;48.244;9.188;2023-04-01T16:10:36;1.83;;;1.53;;
75450;SDS011;64029;48.244;9.188;2023-04-01T16:13:20;2.30;;;1.70;;
75450;SDS011;64029;48.244;9.188;2023-04-01T16:15:57;2.40;;;1.97;;
75450;SDS011;64029;48.244;9.188;2023-04-01T16:18:35;1.70;;;1.23;;
75450;SDS011;64029;48.244;9.188;2023-04-01T16:21:23;3.50;;;1.17;;
75450;SDS011;64029;48.244;9.188;2023-04-01T16:24:02;1.83;;;1.20;;
75450;SDS011;64029;48.244;9.188;2023-04-01T16:26:36;2.97;;;1.20;;
75450;SDS011;64029;48.244;9.188;2023-04-01T16:29:10;1.40;;;1.30;;
75450;SDS011;64029;48.244;9.188;2023-04-01T16:31:45;1.90;;;1.20;;
75450;SDS011;64029;48.244;9.188;2023-04-01T16:34:17;1.20;;;1.10;;
75450;SDS011;64029;48.244;9.188;2023-04-01T16:36:47;1.60;;;0.97;;
75450;SDS011;64029;48.244;9.188;2023-04-01T16:39:22;1.43;;;1.00;;
75450;SDS011;64029;48.244;9.188;2023-04-01T16:41:59;1.10;;;0.83;;
75450;SDS011;64029;48.244;9.188;2023-04-01T16:44:44;1.80;;;0.90;;
75450;SDS011;64029;48.244;9.188;2023-04-01T16:47:16;3.90;;;0.90;;
75450;SDS011;64029;48.244;9.188;2023-04-01T16:49:49;0.90;;;0.80;;
75450;SDS011;64029;48.244;9.188;2023-04-01T16:52:29;4.93;;;0.77;;
75450;SDS011;64029;48.244;9.188;2023-04-01T16:55:03;1.67;;;1.10;;
75450;SDS011;64029;48.244;9.188;2023-04-01T16:57:43;0.80;;;0.80;;
75450;SDS011;64029;48.244;9.188;2023-04-01T17:00:16;2.40;;;0.70;;
75450;SDS011;64029;48.244;9.188;2023-04-01T17:02:52;1.00;;;0.73;;
75450;SDS011;64029;48.244;9.188;2023-04-01T17:05:35;1.63;;;0.90;;
75450;SDS011;64029;48.244;9.188;2023-04-01T17:08:15;1.73;;;0.80;;